ロンドン/ヒースロー の空港の天気 - METARとTAF

ロンドン・ヒースロー空港 ( EGLL / LHR ) - イギリス ロンドン
飛行場実況気象(Metar)
観測時間02/21 02:50 GMT (02/21 02:50 UTC)
風向・風速西南西 5m/s
視程10km以上
天気現象
なし
気温4℃
湿度75%
気圧1024hPa
METAREGLL 210250Z AUTO 24010KT 9999 NCD 04/00 Q1024 NOSIG
過去の天気等 Google飛行場航空写真 Wunderground天気予報

過去48時間のMETAR

飛行場予報(TAF)
発表時間: 2/20 22:53 GMT (2/20 22:53 UTC)
予報対象時間: 21日0時 GMT ~ 22日6時 GMT
風向・風速西南西 6m/s
視程10km以上
なし
21日9時 GMT ~ 21日12時 GMT に徐々に
風向・風速南西 9m/s 瞬間風速 15m/s
全天の8割程度の雲 雲底高度 850m
21日21時 GMT ~ 21日24時 GMT に 確率 30% で一時的に
視程8000m
天気現象弱い雨
全天の8割程度の雲 雲底高度 430m
22日0時 GMT ~ 22日6時 GMT に一時的に
視程6000m
天気現象
全天の8割程度の雲 雲底高度 300m
TAF EGLL 202253Z 2100/2206 24012KT CAVOK
BECMG 2109/2112 23018G30KT BKN028
PROB30 TEMPO 2121/2124 8000 -RA BKN014
TEMPO 2200/2206 6000 RA BKN010